Kesgrave, United Kingdom
Current Conditions -  °F | °C
As of 10:50 PM on Thursday 27 Nov 2014 (Local Time) from EGUW Reporting Station
Haze Haze  
Wind Chill: 50°   Ceiling: 400
Heat Index: 50°   Visibility: 3mi
Dew Point: 50°   Wind: 3mph
Humidity: 100%   Direction: 100°E
Pressure: 29.62"   Gusts: NA
Location:  52.06°N, 1.24°E
Report Text: EGUW 272250Z 10003KT 5000 BR BKN004 10/10 Q1003 YLO2
Loading
Personal Weather Stations






























Interactive Weather Map New forecast layout! Learn more

10-Day Weather Forecast

Advertisements
Track Severe Weather on mobile